createdAt,value
2023-04-04T00:01:21.343Z,85.51
2023-04-04T00:03:51.641Z,84.90
2023-04-04T00:06:19.096Z,84.86
2023-04-04T00:08:45.524Z,84.82
2023-04-04T00:11:11.934Z,85.17
2023-04-04T00:13:38.839Z,85.26
2023-04-04T00:16:06.000Z,85.45
2023-04-04T00:18:32.630Z,85.81
2023-04-04T00:20:59.432Z,86.18
2023-04-04T00:23:25.817Z,86.20
2023-04-04T00:25:52.835Z,85.41
2023-04-04T00:28:20.527Z,84.51
2023-04-04T00:30:47.332Z,85.39
2023-04-04T00:33:17.095Z,85.80
2023-04-04T00:35:43.616Z,86.19
2023-04-04T00:38:10.075Z,86.12
2023-04-04T00:40:43.942Z,86.53
2023-04-04T00:43:10.436Z,86.45
2023-04-04T00:45:36.944Z,87.18
2023-04-04T00:48:03.490Z,87.13
2023-04-04T00:50:32.063Z,86.84
2023-04-04T00:52:58.800Z,86.88
2023-04-04T00:55:25.730Z,86.41
2023-04-04T00:57:52.345Z,86.06
2023-04-04T01:00:18.965Z,85.96
2023-04-04T01:02:45.436Z,86.25
2023-04-04T01:05:12.500Z,86.63
2023-04-04T01:07:39.569Z,86.65
2023-04-04T01:10:06.530Z,88.03
2023-04-04T01:12:32.960Z,88.30
2023-04-04T01:14:59.336Z,88.33
2023-04-04T01:17:27.114Z,87.34
2023-04-04T01:20:01.204Z,87.32
2023-04-04T01:22:29.697Z,86.65
2023-04-04T01:24:57.263Z,86.23
2023-04-04T01:27:23.787Z,85.67
2023-04-04T01:29:50.205Z,85.96
2023-04-04T01:32:20.887Z,87.27
2023-04-04T01:34:53.902Z,87.50
2023-04-04T01:37:21.266Z,88.50
2023-04-04T01:40:08.658Z,88.44
2023-04-04T01:42:36.056Z,88.15
2023-04-04T01:45:03.027Z,88.12
2023-04-04T01:47:31.014Z,88.88
2023-04-04T01:49:57.420Z,88.57
2023-04-04T01:52:23.788Z,89.00
2023-04-04T01:54:50.599Z,89.32
2023-04-04T01:57:17.395Z,89.52
2023-04-04T01:59:43.849Z,89.56
2023-04-04T02:02:12.878Z,89.68
2023-04-04T02:04:39.427Z,89.67
2023-04-04T02:07:06.411Z,89.90
2023-04-04T02:09:33.479Z,90.34
2023-04-04T02:11:59.927Z,90.04
2023-04-04T02:14:26.467Z,90.49
2023-04-04T02:16:52.939Z,90.72
2023-04-04T02:19:19.328Z,91.20
2023-04-04T02:21:45.844Z,91.20
2023-04-04T02:24:12.586Z,90.98
2023-04-04T02:26:39.076Z,91.23
2023-04-04T02:29:06.231Z,91.52
2023-04-04T02:31:32.695Z,92.39
2023-04-04T02:33:59.166Z,93.69
2023-04-04T02:36:25.618Z,94.05
2023-04-04T02:38:51.999Z,94.19
2023-04-04T02:41:18.399Z,94.57
2023-04-04T02:43:44.816Z,95.39
2023-04-04T02:46:20.969Z,96.71
2023-04-04T02:48:48.549Z,97.18
2023-04-04T02:51:14.924Z,97.12
2023-04-04T02:53:41.331Z,96.78
2023-04-04T02:56:07.775Z,96.70
2023-04-04T02:58:34.805Z,96.20
2023-04-04T03:01:01.281Z,96.00
2023-04-04T03:03:27.953Z,95.34
2023-04-04T03:05:54.591Z,95.51
2023-04-04T03:08:20.967Z,95.17
2023-04-04T03:10:47.353Z,95.23
2023-04-04T03:13:13.787Z,95.14
2023-04-04T03:15:43.777Z,94.87
2023-04-04T03:18:13.913Z,94.77
2023-04-04T03:20:40.482Z,94.91
2023-04-04T03:23:07.050Z,94.76
2023-04-04T03:25:33.454Z,94.71
2023-04-04T03:28:08.682Z,94.34
2023-04-04T03:30:35.212Z,95.04
2023-04-04T03:33:09.845Z,95.13
2023-04-04T03:35:40.045Z,97.24
2023-04-04T03:38:06.988Z,99.27
2023-04-04T03:40:33.453Z,100.00
2023-04-04T03:42:59.876Z,100.00
2023-04-04T03:45:26.252Z,100.00
2023-04-04T03:47:52.793Z,100.00
2023-04-04T03:50:19.306Z,100.00
2023-04-04T03:52:45.685Z,100.00
2023-04-04T03:55:12.475Z,100.00
2023-04-04T03:57:38.858Z,100.00
2023-04-04T04:00:05.896Z,100.00
2023-04-04T04:02:32.374Z,100.00
2023-04-04T04:04:58.785Z,100.00
2023-04-04T04:07:25.513Z,100.00
2023-04-04T04:09:51.914Z,100.00
2023-04-04T04:12:18.294Z,100.00
2023-04-04T04:14:44.684Z,100.00
2023-04-04T04:17:11.175Z,100.00
2023-04-04T04:19:37.557Z,100.00
2023-04-04T04:22:03.936Z,100.00
2023-04-04T04:24:30.381Z,100.00
2023-04-04T04:26:56.765Z,100.00
2023-04-04T04:29:23.359Z,100.00
2023-04-04T04:31:49.825Z,100.00
2023-04-04T04:34:16.262Z,100.00
2023-04-04T04:36:42.635Z,100.00
2023-04-04T04:39:09.086Z,100.00
2023-04-04T04:41:36.634Z,100.00
2023-04-04T04:44:03.340Z,100.00
2023-04-04T04:46:29.946Z,100.00
2023-04-04T04:48:56.630Z,100.00
2023-04-04T04:51:23.336Z,100.00
2023-04-04T04:53:49.714Z,100.00
2023-04-04T04:56:16.556Z,100.00
2023-04-04T04:58:45.015Z,100.00
2023-04-04T05:01:11.857Z,100.00
2023-04-04T05:03:38.323Z,100.00
2023-04-04T05:06:04.889Z,100.00
2023-04-04T05:08:31.271Z,100.00
2023-04-04T05:10:57.859Z,100.00
2023-04-04T05:13:24.323Z,100.00
2023-04-04T05:15:50.898Z,100.00
2023-04-04T05:18:17.327Z,100.00
2023-04-04T05:20:43.858Z,100.00
2023-04-04T05:23:10.235Z,100.00
2023-04-04T05:25:36.646Z,100.00
2023-04-04T05:28:03.903Z,100.00
2023-04-04T05:30:30.330Z,100.00
2023-04-04T05:32:56.745Z,100.00
2023-04-04T05:35:23.174Z,100.00
2023-04-04T05:37:49.634Z,100.00
2023-04-04T05:40:16.164Z,100.00
2023-04-04T05:42:42.709Z,100.00
2023-04-04T05:45:09.686Z,100.00
2023-04-04T05:47:36.169Z,100.00
2023-04-04T05:50:02.734Z,100.00
2023-04-04T05:52:29.114Z,100.00
2023-04-04T05:54:55.878Z,100.00
2023-04-04T05:57:23.450Z,100.00
2023-04-04T05:59:50.622Z,100.00
2023-04-04T06:02:17.393Z,100.00
2023-04-04T06:04:45.331Z,100.00
2023-04-04T06:07:11.718Z,100.00
2023-04-04T06:09:38.389Z,100.00
2023-04-04T06:12:04.816Z,100.00
2023-04-04T06:14:31.268Z,100.00
2023-04-04T06:16:58.318Z,100.00
2023-04-04T06:19:24.699Z,100.00
2023-04-04T06:21:51.320Z,100.00
2023-04-04T06:24:17.690Z,100.00
2023-04-04T06:26:45.028Z,100.00
2023-04-04T06:29:11.543Z,100.00
2023-04-04T06:31:38.125Z,100.00
2023-04-04T06:34:04.568Z,100.00
2023-04-04T06:36:31.105Z,100.00
2023-04-04T06:38:57.678Z,100.00
2023-04-04T06:41:24.048Z,100.00
2023-04-04T06:43:50.514Z,100.00
2023-04-04T06:46:17.009Z,100.00
2023-04-04T06:48:43.454Z,100.00
2023-04-04T06:51:09.860Z,100.00
2023-04-04T06:53:36.405Z,100.00
2023-04-04T06:56:03.203Z,100.00
2023-04-04T06:58:29.600Z,100.00
2023-04-04T07:00:57.065Z,100.00
2023-04-04T07:03:24.328Z,100.00
2023-04-04T07:05:50.746Z,100.00
2023-04-04T07:08:17.132Z,100.00
2023-04-04T07:10:43.953Z,100.00
2023-04-04T07:13:11.147Z,100.00
2023-04-04T07:15:37.619Z,100.00
2023-04-04T07:18:04.082Z,100.00
2023-04-04T07:20:30.497Z,100.00
2023-04-04T07:22:56.921Z,100.00
2023-04-04T07:25:23.312Z,100.00
2023-04-04T07:27:53.069Z,100.00
2023-04-04T07:30:26.267Z,100.00
2023-04-04T07:33:02.695Z,100.00
2023-04-04T07:35:29.204Z,100.00
2023-04-04T07:37:55.568Z,100.00
2023-04-04T07:40:22.035Z,100.00
2023-04-04T07:42:51.729Z,100.00
2023-04-04T07:45:18.297Z,100.00
2023-04-04T07:47:45.163Z,98.17
2023-04-04T07:50:12.566Z,96.30
2023-04-04T07:52:39.161Z,93.42
2023-04-04T07:55:07.346Z,92.45
2023-04-04T07:57:37.417Z,88.98
2023-04-04T08:00:05.714Z,86.61
2023-04-04T08:02:32.187Z,85.41
2023-04-04T08:04:58.603Z,84.26
2023-04-04T08:07:25.273Z,81.93
2023-04-04T08:09:51.706Z,82.49
2023-04-04T08:12:18.133Z,82.95
2023-04-04T08:14:44.564Z,84.39
2023-04-04T08:17:12.134Z,85.34
2023-04-04T08:19:38.502Z,85.76
2023-04-04T08:22:05.337Z,86.04
2023-04-04T08:24:31.713Z,85.64
2023-04-04T08:27:05.288Z,85.28
2023-04-04T08:29:32.710Z,84.59
2023-04-04T08:31:59.438Z,83.24
2023-04-04T08:34:25.993Z,81.17
2023-04-04T08:36:52.888Z,79.51
2023-04-04T08:39:19.246Z,77.26
2023-04-04T08:41:45.946Z,76.71
2023-04-04T08:44:18.004Z,75.56
2023-04-04T08:46:45.489Z,74.01
2023-04-04T08:49:13.722Z,73.48
2023-04-04T08:51:44.574Z,70.10
2023-04-04T08:54:13.016Z,67.93
2023-04-04T08:56:39.405Z,68.01
2023-04-04T08:59:06.053Z,67.72
2023-04-04T09:01:33.216Z,66.46
2023-04-04T09:04:00.477Z,65.08
2023-04-04T09:06:27.702Z,66.47
2023-04-04T09:08:54.574Z,66.61
2023-04-04T09:11:22.324Z,64.93
2023-04-04T09:13:50.765Z,64.20
2023-04-04T09:16:17.436Z,65.02
2023-04-04T09:18:44.022Z,65.24
2023-04-04T09:21:11.850Z,65.60
2023-04-04T09:23:38.595Z,64.56
2023-04-04T09:26:05.366Z,65.05
2023-04-04T09:28:32.561Z,64.21
2023-04-04T09:31:05.535Z,61.67
2023-04-04T09:33:33.413Z,61.28
2023-04-04T09:36:12.549Z,62.23
2023-04-04T09:38:40.870Z,60.98
2023-04-04T09:41:09.710Z,59.15
2023-04-04T09:43:37.271Z,59.00
2023-04-04T09:46:04.126Z,58.08
2023-04-04T09:48:32.506Z,58.61
2023-04-04T09:50:59.667Z,57.28
2023-04-04T09:53:26.269Z,56.98
2023-04-04T09:55:54.563Z,55.57
2023-04-04T09:58:24.717Z,55.92
2023-04-04T10:00:53.282Z,56.53
2023-04-04T10:03:22.202Z,55.05
2023-04-04T10:05:54.296Z,53.92
2023-04-04T10:08:24.176Z,53.21
2023-04-04T10:11:06.506Z,54.11
2023-04-04T10:13:40.476Z,52.32
2023-04-04T10:16:07.267Z,51.74
2023-04-04T10:18:35.403Z,51.01
2023-04-04T10:21:14.651Z,51.45
2023-04-04T10:23:43.740Z,50.53
2023-04-04T10:26:10.837Z,50.10
2023-04-04T10:28:37.658Z,51.34
2023-04-04T10:31:22.040Z,51.44
2023-04-04T10:34:00.791Z,51.02
2023-04-04T10:36:31.431Z,51.88
2023-04-04T10:39:04.963Z,51.94
2023-04-04T10:41:32.416Z,51.09
2023-04-04T10:44:01.299Z,49.93
2023-04-04T10:46:31.696Z,48.75
2023-04-04T10:49:00.176Z,50.23
2023-04-04T10:51:26.979Z,50.43
2023-04-04T10:53:53.991Z,50.70
2023-04-04T10:56:21.435Z,50.40
2023-04-04T10:58:49.108Z,51.63
2023-04-04T11:01:20.838Z,52.15
2023-04-04T11:04:20.084Z,51.32
2023-04-04T11:07:16.107Z,50.71
2023-04-04T11:09:55.396Z,50.45
2023-04-04T11:12:31.149Z,48.27
2023-04-04T11:15:00.535Z,47.94
2023-04-04T11:17:48.657Z,48.83
2023-04-04T11:20:17.052Z,47.94
2023-04-04T11:22:43.760Z,48.14
2023-04-04T11:25:27.072Z,48.60
2023-04-04T11:27:58.056Z,46.43
2023-04-04T11:30:30.364Z,47.45
2023-04-04T11:33:07.100Z,49.07
2023-04-04T11:35:38.415Z,48.55
2023-04-04T11:38:12.817Z,47.91
2023-04-04T11:40:41.319Z,48.23
2023-04-04T11:43:09.843Z,46.94
2023-04-04T11:45:37.425Z,47.08
2023-04-04T11:48:06.028Z,44.66
2023-04-04T11:50:40.027Z,43.70
2023-04-04T11:53:10.281Z,43.81
2023-04-04T11:55:43.802Z,43.13
2023-04-04T11:58:13.146Z,43.07
2023-04-04T12:00:39.991Z,41.76
2023-04-04T12:03:10.740Z,41.53
2023-04-04T12:05:38.636Z,40.36
2023-04-04T12:08:07.508Z,40.47
2023-04-04T12:10:34.803Z,42.04
2023-04-04T12:13:02.589Z,40.81
2023-04-04T12:15:29.791Z,41.43
2023-04-04T12:17:56.284Z,43.36
2023-04-04T12:20:24.250Z,43.65
2023-04-04T12:22:54.212Z,43.96
2023-04-04T12:25:22.121Z,45.09
2023-04-04T12:27:48.993Z,43.06
2023-04-04T12:30:16.069Z,42.19
2023-04-04T12:32:44.024Z,41.93
2023-04-04T12:35:11.630Z,41.25
2023-04-04T12:37:38.119Z,42.72
2023-04-04T12:40:04.972Z,42.84
2023-04-04T12:42:32.499Z,43.10
2023-04-04T12:45:02.161Z,42.81
2023-04-04T12:47:31.123Z,43.25
2023-04-04T12:49:57.629Z,42.79
2023-04-04T12:52:29.659Z,42.40
2023-04-04T12:55:07.392Z,41.77
2023-04-04T12:57:34.654Z,42.43
2023-04-04T13:00:02.197Z,42.88
2023-04-04T13:02:29.468Z,42.67
2023-04-04T13:04:56.378Z,43.09
2023-04-04T13:07:25.437Z,41.88
2023-04-04T13:09:57.814Z,42.33
2023-04-04T13:12:24.879Z,41.83
2023-04-04T13:15:01.741Z,39.79
2023-04-04T13:17:43.074Z,38.84
2023-04-04T13:20:10.496Z,38.45
2023-04-04T13:22:37.784Z,38.98
2023-04-04T13:25:05.795Z,38.46
2023-04-04T13:27:32.239Z,39.88
2023-04-04T13:29:58.624Z,39.97
2023-04-04T13:32:25.397Z,40.52
2023-04-04T13:34:51.912Z,39.55
2023-04-04T13:37:18.658Z,39.40
2023-04-04T13:39:45.028Z,39.77
2023-04-04T13:42:11.416Z,39.94
2023-04-04T13:44:37.787Z,39.92
2023-04-04T13:47:04.204Z,40.73
2023-04-04T13:49:30.645Z,41.04
2023-04-04T13:51:57.041Z,40.55
2023-04-04T13:54:23.419Z,41.24
2023-04-04T13:56:49.806Z,40.55
2023-04-04T13:59:16.292Z,38.77
2023-04-04T14:01:42.805Z,37.05
2023-04-04T14:04:22.980Z,37.50
2023-04-04T14:06:50.428Z,38.05
2023-04-04T14:09:16.802Z,37.68
2023-04-04T14:11:43.424Z,37.34
2023-04-04T14:14:09.826Z,35.91
2023-04-04T14:16:36.434Z,33.86
2023-04-04T14:19:03.001Z,31.82
2023-04-04T14:21:29.385Z,30.94
2023-04-04T14:23:55.787Z,30.94
2023-04-04T14:26:22.234Z,31.72
2023-04-04T14:28:48.792Z,31.36
2023-04-04T14:31:15.406Z,31.63
2023-04-04T14:33:41.998Z,31.57
2023-04-04T14:36:08.410Z,32.34
2023-04-04T14:38:34.835Z,31.59
2023-04-04T14:41:01.894Z,30.62
2023-04-04T14:43:28.325Z,30.78
2023-04-04T14:45:54.808Z,29.54
2023-04-04T14:48:21.227Z,30.21
2023-04-04T14:50:47.644Z,31.34
2023-04-04T14:53:14.167Z,31.36
2023-04-04T14:55:40.842Z,32.08
2023-04-04T14:58:08.179Z,35.74
2023-04-04T15:00:34.616Z,37.12
2023-04-04T15:03:01.539Z,36.83
2023-04-04T15:05:28.171Z,38.78
2023-04-04T15:07:55.516Z,39.78
2023-04-04T15:10:21.937Z,39.89
2023-04-04T15:12:48.409Z,39.11
2023-04-04T15:15:15.585Z,39.53
2023-04-04T15:17:42.196Z,39.94
2023-04-04T15:20:09.458Z,38.74
2023-04-04T15:22:36.267Z,37.77
2023-04-04T15:25:02.698Z,37.77
2023-04-04T15:27:29.190Z,38.05
2023-04-04T15:29:55.828Z,38.04
2023-04-04T15:32:22.232Z,37.90
2023-04-04T15:34:48.640Z,37.94
2023-04-04T15:37:15.725Z,38.37
2023-04-04T15:39:51.838Z,37.90
2023-04-04T15:42:19.692Z,36.37
2023-04-04T15:44:46.540Z,34.69
2023-04-04T15:47:13.089Z,33.62
2023-04-04T15:49:39.515Z,33.50
2023-04-04T15:52:05.964Z,33.73
2023-04-04T15:54:32.356Z,34.69
2023-04-04T15:56:58.730Z,36.16
2023-04-04T15:59:25.220Z,35.09
2023-04-04T16:01:51.812Z,35.97
2023-04-04T16:04:18.220Z,36.96
2023-04-04T16:06:44.612Z,36.04
2023-04-04T16:09:11.381Z,35.31
2023-04-04T16:11:37.924Z,34.36
2023-04-04T16:14:05.913Z,34.54
2023-04-04T16:16:32.332Z,34.36
2023-04-04T16:18:58.709Z,35.08
2023-04-04T16:21:27.997Z,34.60
2023-04-04T16:23:54.708Z,35.18
2023-04-04T16:26:21.951Z,34.45
2023-04-04T16:28:48.348Z,33.14
2023-04-04T16:31:15.340Z,32.86
2023-04-04T16:33:42.191Z,33.17
2023-04-04T16:36:08.682Z,33.72
2023-04-04T16:38:35.083Z,35.06
2023-04-04T16:41:01.862Z,35.88
2023-04-04T16:43:28.283Z,34.91
2023-04-04T16:45:54.663Z,34.57
2023-04-04T16:48:21.067Z,36.40
2023-04-04T16:50:47.545Z,35.84
2023-04-04T16:53:13.949Z,36.28
2023-04-04T16:55:40.589Z,38.02
2023-04-04T16:58:06.968Z,39.41
2023-04-04T17:00:33.444Z,39.60
2023-04-04T17:03:00.008Z,39.66
2023-04-04T17:05:26.494Z,40.60
2023-04-04T17:07:52.876Z,40.18
2023-04-04T17:10:19.408Z,39.69
2023-04-04T17:12:45.838Z,39.49
2023-04-04T17:15:12.276Z,39.72
2023-04-04T17:17:38.669Z,41.29
2023-04-04T17:20:05.924Z,42.40
2023-04-04T17:22:32.320Z,42.31
2023-04-04T17:24:58.735Z,42.36
2023-04-04T17:27:25.276Z,41.65
2023-04-04T17:29:52.096Z,41.66
2023-04-04T17:32:19.278Z,42.46
2023-04-04T17:34:46.015Z,42.08
2023-04-04T17:37:13.181Z,41.90
2023-04-04T17:39:39.575Z,41.30
2023-04-04T17:42:05.970Z,42.07
2023-04-04T17:44:32.378Z,43.30
2023-04-04T17:46:59.606Z,44.44
2023-04-04T17:49:26.257Z,44.72
2023-04-04T17:51:53.461Z,44.62
2023-04-04T17:54:20.700Z,45.90
2023-04-04T17:56:47.555Z,45.41
2023-04-04T17:59:14.638Z,44.70
2023-04-04T18:01:41.342Z,45.19
2023-04-04T18:04:08.222Z,44.86
2023-04-04T18:06:34.621Z,46.09
2023-04-04T18:09:01.020Z,46.72
2023-04-04T18:11:27.875Z,46.38
2023-04-04T18:13:54.323Z,46.82
2023-04-04T18:16:20.832Z,47.99
2023-04-04T18:18:47.256Z,48.87
2023-04-04T18:21:13.707Z,49.98
2023-04-04T18:23:40.505Z,49.93
2023-04-04T18:26:07.256Z,50.05
2023-04-04T18:28:33.634Z,50.47
2023-04-04T18:31:00.320Z,49.68
2023-04-04T18:33:27.879Z,50.61
2023-04-04T18:35:54.595Z,51.19
2023-04-04T18:38:21.195Z,51.35
2023-04-04T18:40:47.753Z,51.79
2023-04-04T18:43:14.212Z,52.28
2023-04-04T18:45:41.336Z,52.62
2023-04-04T18:48:08.397Z,52.41
2023-04-04T18:50:35.319Z,52.05
2023-04-04T18:53:01.773Z,51.42
2023-04-04T18:55:28.167Z,50.67
2023-04-04T18:57:54.775Z,50.34
2023-04-04T19:00:21.495Z,50.60
2023-04-04T19:02:48.125Z,51.68
2023-04-04T19:05:15.365Z,52.71
2023-04-04T19:07:42.266Z,52.86
2023-04-04T19:10:09.172Z,52.12
2023-04-04T19:12:35.715Z,52.66
2023-04-04T19:15:02.514Z,52.83
2023-04-04T19:17:29.604Z,54.06
2023-04-04T19:19:57.405Z,54.52
2023-04-04T19:22:23.843Z,54.03
2023-04-04T19:24:50.237Z,53.55
2023-04-04T19:27:16.658Z,53.30
2023-04-04T19:29:43.108Z,53.70
2023-04-04T19:32:16.685Z,55.91
2023-04-04T19:34:43.731Z,54.91
2023-04-04T19:37:12.143Z,54.22
2023-04-04T19:39:39.247Z,54.76
2023-04-04T19:42:07.130Z,55.02
2023-04-04T19:44:33.832Z,54.27
2023-04-04T19:47:01.006Z,53.19
2023-04-04T19:49:33.404Z,53.12
2023-04-04T19:52:01.388Z,53.06
2023-04-04T19:54:30.679Z,53.38
2023-04-04T19:57:03.433Z,53.71
2023-04-04T19:59:51.292Z,54.34
2023-04-04T20:02:26.948Z,54.40
2023-04-04T20:04:54.085Z,54.35
2023-04-04T20:07:20.756Z,54.83
2023-04-04T20:09:47.702Z,55.60
2023-04-04T20:12:16.076Z,56.00
2023-04-04T20:14:42.499Z,56.47
2023-04-04T20:17:09.618Z,56.95
2023-04-04T20:19:36.497Z,58.05
2023-04-04T20:22:04.888Z,60.06
2023-04-04T20:24:31.322Z,61.47
2023-04-04T20:26:59.015Z,62.15
2023-04-04T20:29:26.796Z,62.44
2023-04-04T20:31:55.478Z,63.20
2023-04-04T20:34:46.821Z,62.38
2023-04-04T20:37:24.134Z,61.05
2023-04-04T20:39:57.807Z,60.48
2023-04-04T20:42:30.494Z,60.33
2023-04-04T20:45:17.589Z,59.18
2023-04-04T20:47:51.836Z,58.38
2023-04-04T20:50:21.331Z,58.84
2023-04-04T20:52:52.863Z,59.37
2023-04-04T20:55:20.339Z,59.62
2023-04-04T20:57:47.329Z,60.65
2023-04-04T21:00:28.620Z,63.78
2023-04-04T21:03:09.284Z,65.27
2023-04-04T21:05:38.653Z,64.96
2023-04-04T21:08:42.823Z,64.63
2023-04-04T21:11:09.779Z,63.88
2023-04-04T21:13:38.457Z,65.53
2023-04-04T21:16:13.550Z,65.96
2023-04-04T21:18:41.531Z,67.12
2023-04-04T21:21:07.992Z,69.50
2023-04-04T21:23:41.552Z,69.98
2023-04-04T21:26:09.657Z,71.61
2023-04-04T21:28:38.047Z,72.75
2023-04-04T21:31:16.209Z,72.27
2023-04-04T21:33:47.732Z,70.56
2023-04-04T21:36:23.289Z,69.75
2023-04-04T21:38:51.293Z,69.49
2023-04-04T21:41:34.727Z,69.29
2023-04-04T21:44:06.520Z,69.94
2023-04-04T21:46:35.690Z,70.91
2023-04-04T21:49:03.099Z,70.39
2023-04-04T21:51:29.595Z,70.44
2023-04-04T21:53:57.314Z,70.12
2023-04-04T21:56:32.659Z,69.50
2023-04-04T21:59:04.251Z,69.34
2023-04-04T22:01:31.111Z,70.02
2023-04-04T22:03:58.518Z,69.23
2023-04-04T22:06:27.768Z,68.36
2023-04-04T22:08:55.933Z,68.24
2023-04-04T22:11:25.679Z,69.01
2023-04-04T22:13:52.459Z,68.29
2023-04-04T22:16:19.845Z,68.25
2023-04-04T22:18:47.795Z,68.12
2023-04-04T22:21:15.253Z,67.91
2023-04-04T22:23:42.216Z,68.02
2023-04-04T22:26:11.002Z,68.23
2023-04-04T22:28:38.478Z,67.85
2023-04-04T22:31:06.029Z,68.03
2023-04-04T22:33:33.826Z,68.97
2023-04-04T22:36:01.197Z,68.91
2023-04-04T22:38:28.265Z,69.01
2023-04-04T22:40:55.948Z,69.51
2023-04-04T22:43:22.591Z,69.73
2023-04-04T22:45:49.417Z,69.57
2023-04-04T22:48:15.863Z,69.64
2023-04-04T22:50:42.561Z,68.42
2023-04-04T22:53:12.793Z,68.78
2023-04-04T22:55:40.312Z,69.35
2023-04-04T22:58:07.450Z,70.26
2023-04-04T23:00:34.366Z,71.85
2023-04-04T23:03:02.071Z,72.53
2023-04-04T23:05:29.087Z,74.08
2023-04-04T23:07:55.560Z,75.04
2023-04-04T23:10:21.942Z,75.06
2023-04-04T23:12:48.336Z,74.89
2023-04-04T23:15:14.742Z,75.29
2023-04-04T23:17:41.330Z,75.03
2023-04-04T23:20:09.959Z,74.92
2023-04-04T23:22:37.729Z,73.35
2023-04-04T23:25:07.872Z,73.13
2023-04-04T23:27:34.672Z,71.82
2023-04-04T23:30:05.009Z,72.08
2023-04-04T23:32:32.008Z,72.31
2023-04-04T23:34:58.426Z,71.94
2023-04-04T23:37:24.836Z,72.06
2023-04-04T23:39:51.228Z,71.66
2023-04-04T23:42:17.604Z,71.73
2023-04-04T23:44:44.047Z,71.99
2023-04-04T23:47:10.821Z,72.31
2023-04-04T23:49:37.563Z,72.05
2023-04-04T23:52:05.956Z,73.08
2023-04-04T23:54:32.356Z,73.88
2023-04-04T23:56:58.786Z,75.00
2023-04-04T23:59:25.770Z,75.31
